createdAt,value
2023-03-24T00:00:17.758Z,976.32
2023-03-24T00:01:17.744Z,976.29
2023-03-24T00:02:17.791Z,976.28
2023-03-24T00:03:18.046Z,976.29
2023-03-24T00:04:17.768Z,976.28
2023-03-24T00:05:17.700Z,976.28
2023-03-24T00:06:17.732Z,976.30
2023-03-24T00:07:17.691Z,976.29
2023-03-24T00:08:17.690Z,976.30
2023-03-24T00:09:17.671Z,976.31
2023-03-24T00:10:17.657Z,976.30
2023-03-24T00:11:17.659Z,976.27
2023-03-24T00:12:17.670Z,976.27
2023-03-24T00:13:17.652Z,976.29
2023-03-24T00:14:17.617Z,976.32
2023-03-24T00:15:17.598Z,976.33
2023-03-24T00:16:17.587Z,976.34
2023-03-24T00:17:17.733Z,976.33
2023-03-24T00:18:17.572Z,976.32
2023-03-24T00:19:17.553Z,976.29
2023-03-24T00:20:17.546Z,976.27
2023-03-24T00:21:17.532Z,976.26
2023-03-24T00:22:17.539Z,976.23
2023-03-24T00:23:17.565Z,976.22
2023-03-24T00:24:17.537Z,976.22
2023-03-24T00:25:17.517Z,976.20
2023-03-24T00:26:17.495Z,976.18
2023-03-24T00:27:17.486Z,976.15
2023-03-24T00:28:17.464Z,976.17
2023-03-24T00:29:17.505Z,976.19
2023-03-24T00:30:17.447Z,976.18
2023-03-24T00:31:17.557Z,976.16
2023-03-24T00:32:17.435Z,976.13
2023-03-24T00:33:17.406Z,976.09
2023-03-24T00:34:17.424Z,976.07
2023-03-24T00:35:17.410Z,976.05
2023-03-24T00:36:17.406Z,976.07
2023-03-24T00:37:17.373Z,976.08
2023-03-24T00:38:17.375Z,976.09
2023-03-24T00:39:17.370Z,976.08
2023-03-24T00:40:17.366Z,976.03
2023-03-24T00:41:17.339Z,976.00
2023-03-24T00:42:17.318Z,975.98
2023-03-24T00:43:17.310Z,975.96
2023-03-24T00:44:17.303Z,975.95
2023-03-24T00:45:17.438Z,975.94
2023-03-24T00:46:17.346Z,975.92
2023-03-24T00:47:17.280Z,975.89
2023-03-24T00:48:17.275Z,975.87
2023-03-24T00:49:17.263Z,975.87
2023-03-24T00:50:17.267Z,975.87
2023-03-24T00:51:17.653Z,975.83
2023-03-24T00:52:17.227Z,975.77
2023-03-24T00:53:17.228Z,975.75
2023-03-24T00:54:17.215Z,975.76
2023-03-24T00:55:17.293Z,975.78
2023-03-24T00:56:17.173Z,975.80
2023-03-24T00:57:17.205Z,975.79
2023-03-24T00:58:17.160Z,975.76
2023-03-24T00:59:17.163Z,975.77
2023-03-24T01:00:17.160Z,975.76
2023-03-24T01:01:17.192Z,975.76
2023-03-24T01:02:17.174Z,975.75
2023-03-24T01:03:17.539Z,975.71
2023-03-24T01:04:17.128Z,975.68
2023-03-24T01:05:17.214Z,975.67
2023-03-24T01:06:17.091Z,975.64
2023-03-24T01:07:17.070Z,975.61
2023-03-24T01:08:17.055Z,975.60
2023-03-24T01:09:17.054Z,975.59
2023-03-24T01:10:17.027Z,975.60
2023-03-24T01:11:17.034Z,975.61
2023-03-24T01:12:17.017Z,975.61
2023-03-24T01:13:17.006Z,975.60
2023-03-24T01:14:17.012Z,975.60
2023-03-24T01:15:17.024Z,975.59
2023-03-24T01:16:17.006Z,975.56
2023-03-24T01:17:16.970Z,975.52
2023-03-24T01:18:16.961Z,975.50
2023-03-24T01:19:16.930Z,975.50
2023-03-24T01:20:16.927Z,975.49
2023-03-24T01:21:16.927Z,975.50
2023-03-24T01:22:16.900Z,975.51
2023-03-24T01:23:16.918Z,975.53
2023-03-24T01:24:16.894Z,975.53
2023-03-24T01:25:16.954Z,975.49
2023-03-24T01:26:16.865Z,975.45
2023-03-24T01:27:16.879Z,975.41
2023-03-24T01:28:16.864Z,975.36
2023-03-24T01:29:16.830Z,975.34
2023-03-24T01:30:16.886Z,975.31
2023-03-24T01:31:16.861Z,975.31
2023-03-24T01:32:16.795Z,975.32
2023-03-24T01:33:16.782Z,975.31
2023-03-24T01:34:16.797Z,975.31
2023-03-24T01:35:16.775Z,975.28
2023-03-24T01:36:16.788Z,975.27
2023-03-24T01:37:16.768Z,975.25
2023-03-24T01:38:16.751Z,975.25
2023-03-24T01:39:16.756Z,975.21
2023-03-24T01:40:16.746Z,975.19
2023-03-24T01:41:16.757Z,975.17
2023-03-24T01:42:16.740Z,975.16
2023-03-24T01:43:16.680Z,975.14
2023-03-24T01:44:16.669Z,975.14
2023-03-24T01:45:16.675Z,975.15
2023-03-24T01:46:16.747Z,975.16
2023-03-24T01:47:16.682Z,975.15
2023-03-24T01:48:16.663Z,975.14
2023-03-24T01:49:16.620Z,975.15
2023-03-24T01:50:16.627Z,975.16
2023-03-24T01:51:16.618Z,975.16
2023-03-24T01:52:16.665Z,975.19
2023-03-24T01:53:16.603Z,975.18
2023-03-24T01:54:16.590Z,975.16
2023-03-24T01:55:16.572Z,975.13
2023-03-24T01:56:16.589Z,975.11
2023-03-24T01:57:16.570Z,975.08
2023-03-24T01:58:16.587Z,975.05
2023-03-24T01:59:16.526Z,975.04
2023-03-24T02:00:16.513Z,975.03
2023-03-24T02:01:16.543Z,974.99
2023-03-24T02:02:16.505Z,974.96
2023-03-24T02:03:16.492Z,974.93
2023-03-24T02:04:16.537Z,974.91
2023-03-24T02:05:16.458Z,974.87
2023-03-24T02:06:16.454Z,974.83
2023-03-24T02:07:16.486Z,974.80
2023-03-24T02:08:16.466Z,974.75
2023-03-24T02:09:16.441Z,974.70
2023-03-24T02:10:16.434Z,974.66
2023-03-24T02:11:16.416Z,974.65
2023-03-24T02:12:16.403Z,974.63
2023-03-24T02:13:16.414Z,974.59
2023-03-24T02:14:16.374Z,974.57
2023-03-24T02:15:16.379Z,974.56
2023-03-24T02:16:16.417Z,974.55
2023-03-24T02:17:16.357Z,974.55
2023-03-24T02:18:16.349Z,974.57
2023-03-24T02:19:16.349Z,974.59
2023-03-24T02:20:16.305Z,974.58
2023-03-24T02:21:16.326Z,974.56
2023-03-24T02:22:16.287Z,974.54
2023-03-24T02:23:16.325Z,974.55
2023-03-24T02:24:16.299Z,974.56
2023-03-24T02:25:16.279Z,974.54
2023-03-24T02:26:16.261Z,974.48
2023-03-24T02:27:16.263Z,974.41
2023-03-24T02:28:16.232Z,974.40
2023-03-24T02:29:16.258Z,974.44
2023-03-24T02:30:16.249Z,974.51
2023-03-24T02:31:16.302Z,974.52
2023-03-24T02:32:16.192Z,974.42
2023-03-24T02:33:16.184Z,974.32
2023-03-24T02:34:16.180Z,974.28
2023-03-24T02:35:16.194Z,974.30
2023-03-24T02:36:16.204Z,974.35
2023-03-24T02:37:16.155Z,974.34
2023-03-24T02:38:16.139Z,974.31
2023-03-24T02:39:16.132Z,974.25
2023-03-24T02:40:16.105Z,974.22
2023-03-24T02:41:16.129Z,974.24
2023-03-24T02:42:16.121Z,974.27
2023-03-24T02:43:16.071Z,974.28
2023-03-24T02:44:16.081Z,974.26
2023-03-24T02:45:16.058Z,974.25
2023-03-24T02:46:16.054Z,974.23
2023-03-24T02:47:16.062Z,974.19
2023-03-24T02:48:16.030Z,974.15
2023-03-24T02:49:16.017Z,974.18
2023-03-24T02:50:16.018Z,974.16
2023-03-24T02:51:16.016Z,974.14
2023-03-24T02:52:16.001Z,974.19
2023-03-24T02:53:16.017Z,974.20
2023-03-24T02:54:15.976Z,974.21
2023-03-24T02:55:15.958Z,974.22
2023-03-24T02:56:15.979Z,974.23
2023-03-24T02:57:15.927Z,974.19
2023-03-24T02:58:15.920Z,974.17
2023-03-24T02:59:15.942Z,974.15
2023-03-24T03:00:15.895Z,974.14
2023-03-24T03:01:15.909Z,974.23
2023-03-24T03:02:15.891Z,974.21
2023-03-24T03:03:15.898Z,974.16
2023-03-24T03:04:15.918Z,974.15
2023-03-24T03:05:15.896Z,974.08
2023-03-24T03:06:15.863Z,974.08
2023-03-24T03:07:15.838Z,974.14
2023-03-24T03:08:15.839Z,974.11
2023-03-24T03:09:15.825Z,974.04
2023-03-24T03:10:15.819Z,973.99
2023-03-24T03:11:15.847Z,973.98
2023-03-24T03:12:15.807Z,974.18
2023-03-24T03:13:15.773Z,974.17
2023-03-24T03:14:15.760Z,974.10
2023-03-24T03:15:15.768Z,974.07
2023-03-24T03:16:15.841Z,974.03
2023-03-24T03:17:15.735Z,974.02
2023-03-24T03:18:15.723Z,974.03
2023-03-24T03:19:15.743Z,974.02
2023-03-24T03:20:15.690Z,973.97
2023-03-24T03:21:15.695Z,973.94
2023-03-24T03:22:15.738Z,973.94
2023-03-24T03:23:15.706Z,973.98
2023-03-24T03:24:15.656Z,973.96
2023-03-24T03:25:15.668Z,973.90
2023-03-24T03:26:15.627Z,973.86
2023-03-24T03:27:15.647Z,973.82
2023-03-24T03:28:15.615Z,973.81
2023-03-24T03:29:15.662Z,973.80
2023-03-24T03:30:15.614Z,973.80
2023-03-24T03:31:15.623Z,973.86
2023-03-24T03:32:15.596Z,973.83
2023-03-24T03:33:15.600Z,973.80
2023-03-24T03:34:15.579Z,973.78
2023-03-24T03:35:15.604Z,973.78
2023-03-24T03:36:15.597Z,973.77
2023-03-24T03:37:15.543Z,973.76
2023-03-24T03:38:15.531Z,973.75
2023-03-24T03:39:15.527Z,973.75
2023-03-24T03:40:15.548Z,973.74
2023-03-24T03:41:15.513Z,973.72
2023-03-24T03:42:15.489Z,973.74
2023-03-24T03:43:15.486Z,973.73
2023-03-24T03:44:15.480Z,973.74
2023-03-24T03:45:15.475Z,973.76
2023-03-24T03:46:15.507Z,973.77
2023-03-24T03:47:15.437Z,973.77
2023-03-24T03:48:15.438Z,973.75
2023-03-24T03:49:15.408Z,973.76
2023-03-24T03:50:15.404Z,973.74
2023-03-24T03:51:15.433Z,973.73
2023-03-24T03:52:15.393Z,973.74
2023-03-24T03:53:15.377Z,973.72
2023-03-24T03:54:15.363Z,973.70
2023-03-24T03:55:15.345Z,973.66
2023-03-24T03:56:15.325Z,973.61
2023-03-24T03:57:15.367Z,973.56
2023-03-24T03:58:15.339Z,973.56
2023-03-24T03:59:15.332Z,973.54
2023-03-24T04:00:15.307Z,973.53
2023-03-24T04:01:15.297Z,973.53
2023-03-24T04:02:15.345Z,973.53
2023-03-24T04:03:15.317Z,973.51
2023-03-24T04:04:15.249Z,973.51
2023-03-24T04:05:15.276Z,973.52
2023-03-24T04:06:15.232Z,973.55
2023-03-24T04:07:15.240Z,973.57
2023-03-24T04:08:15.248Z,973.60
2023-03-24T04:09:15.216Z,973.61
2023-03-24T04:10:15.203Z,973.60
2023-03-24T04:11:15.227Z,973.59
2023-03-24T04:12:15.155Z,973.61
2023-03-24T04:13:15.154Z,973.62
2023-03-24T04:14:15.170Z,973.64
2023-03-24T04:15:15.149Z,973.62
2023-03-24T04:16:15.192Z,973.62
2023-03-24T04:17:15.123Z,973.60
2023-03-24T04:18:15.136Z,973.54
2023-03-24T04:19:15.141Z,973.51
2023-03-24T04:20:15.143Z,973.51
2023-03-24T04:21:15.098Z,973.51
2023-03-24T04:22:15.070Z,973.48
2023-03-24T04:23:15.078Z,973.49
2023-03-24T04:24:15.072Z,973.50
2023-03-24T04:25:15.043Z,973.50
2023-03-24T04:26:15.047Z,973.49
2023-03-24T04:27:15.031Z,973.50
2023-03-24T04:28:15.005Z,973.50
2023-03-24T04:29:15.029Z,973.52
2023-03-24T04:30:16.723Z,973.51
2023-03-24T04:31:15.001Z,973.51
2023-03-24T04:32:14.972Z,973.50
2023-03-24T04:33:14.960Z,973.46
2023-03-24T04:34:14.953Z,973.46
2023-03-24T04:35:14.960Z,973.45
2023-03-24T04:36:14.945Z,973.44
2023-03-24T04:37:14.924Z,973.44
2023-03-24T04:38:14.915Z,973.41
2023-03-24T04:39:14.908Z,973.36
2023-03-24T04:40:14.944Z,973.34
2023-03-24T04:41:15.739Z,973.34
2023-03-24T04:42:14.857Z,973.34
2023-03-24T04:43:14.861Z,973.41
2023-03-24T04:44:14.856Z,973.39
2023-03-24T04:45:14.881Z,973.40
2023-03-24T04:46:14.898Z,973.42
2023-03-24T04:47:14.845Z,973.41
2023-03-24T04:48:14.784Z,973.38
2023-03-24T04:49:14.791Z,973.34
2023-03-24T04:50:14.791Z,973.32
2023-03-24T04:51:14.813Z,973.35
2023-03-24T04:52:16.245Z,973.37
2023-03-24T04:53:14.755Z,973.39
2023-03-24T04:54:14.733Z,973.38
2023-03-24T04:55:14.742Z,973.40
2023-03-24T04:56:14.736Z,973.41
2023-03-24T04:57:14.746Z,973.41
2023-03-24T04:58:14.696Z,973.41
2023-03-24T04:59:14.702Z,973.47
2023-03-24T05:00:14.714Z,973.47
2023-03-24T05:01:14.716Z,973.49
2023-03-24T05:02:14.694Z,973.49
2023-03-24T05:03:14.656Z,973.49
2023-03-24T05:04:14.735Z,973.47
2023-03-24T05:05:14.624Z,973.44
2023-03-24T05:06:14.627Z,973.45
2023-03-24T05:07:14.608Z,973.44
2023-03-24T05:08:15.085Z,973.43
2023-03-24T05:09:14.591Z,973.48
2023-03-24T05:10:14.576Z,973.49
2023-03-24T05:11:14.570Z,973.49
2023-03-24T05:12:14.564Z,973.47
2023-03-24T05:13:14.565Z,973.49
2023-03-24T05:14:14.567Z,973.51
2023-03-24T05:15:14.523Z,973.52
2023-03-24T05:16:14.558Z,973.56
2023-03-24T05:17:14.540Z,973.57
2023-03-24T05:18:14.498Z,973.55
2023-03-24T05:19:14.492Z,973.59
2023-03-24T05:20:14.508Z,973.61
2023-03-24T05:21:14.463Z,973.63
2023-03-24T05:22:14.466Z,973.68
2023-03-24T05:23:14.458Z,973.68
2023-03-24T05:24:14.434Z,973.70
2023-03-24T05:25:14.452Z,973.70
2023-03-24T05:26:14.467Z,973.72
2023-03-24T05:27:14.402Z,973.73
2023-03-24T05:28:14.394Z,973.74
2023-03-24T05:29:14.366Z,973.76
2023-03-24T05:30:14.390Z,973.81
2023-03-24T05:31:14.419Z,973.80
2023-03-24T05:32:14.340Z,973.82
2023-03-24T05:33:14.363Z,973.83
2023-03-24T05:34:14.314Z,973.83
2023-03-24T05:35:14.349Z,973.82
2023-03-24T05:36:14.352Z,973.85
2023-03-24T05:37:14.339Z,973.83
2023-03-24T05:38:14.310Z,973.87
2023-03-24T05:39:14.284Z,973.84
2023-03-24T05:40:14.276Z,973.83
2023-03-24T05:41:14.263Z,973.84
2023-03-24T05:42:14.268Z,973.84
2023-03-24T05:43:14.261Z,973.84
2023-03-24T05:44:14.229Z,973.82
2023-03-24T05:45:14.215Z,973.83
2023-03-24T05:46:14.257Z,973.86
2023-03-24T05:47:14.201Z,973.87
2023-03-24T05:48:14.238Z,973.92
2023-03-24T05:49:14.199Z,973.92
2023-03-24T05:50:14.172Z,973.96
2023-03-24T05:51:14.158Z,974.00
2023-03-24T05:52:14.148Z,973.99
2023-03-24T05:53:14.152Z,974.00
2023-03-24T05:54:14.169Z,974.00
2023-03-24T05:55:14.106Z,974.02
2023-03-24T05:56:14.100Z,974.01
2023-03-24T05:57:14.099Z,974.01
2023-03-24T05:58:14.082Z,974.02
2023-03-24T05:59:14.098Z,974.02
2023-03-24T06:00:14.105Z,974.02
2023-03-24T06:01:14.063Z,974.01
2023-03-24T06:02:14.118Z,974.03
2023-03-24T06:03:14.285Z,974.01
2023-03-24T06:04:14.122Z,974.03
2023-03-24T06:05:14.019Z,974.03
2023-03-24T06:06:14.019Z,974.08
2023-03-24T06:07:14.003Z,974.07
2023-03-24T06:08:13.975Z,974.06
2023-03-24T06:09:14.014Z,974.09
2023-03-24T06:10:13.962Z,974.11
2023-03-24T06:11:13.990Z,974.09
2023-03-24T06:12:13.949Z,974.08
2023-03-24T06:13:13.919Z,974.05
2023-03-24T06:14:13.942Z,974.03
2023-03-24T06:15:13.924Z,974.05
2023-03-24T06:16:13.963Z,974.03
2023-03-24T06:17:13.908Z,974.03
2023-03-24T06:18:13.875Z,974.01
2023-03-24T06:19:13.878Z,974.01
2023-03-24T06:20:13.917Z,973.98
2023-03-24T06:21:13.845Z,973.97
2023-03-24T06:22:13.836Z,973.96
2023-03-24T06:23:13.817Z,973.99
2023-03-24T06:24:13.811Z,974.01
2023-03-24T06:25:13.805Z,974.04
2023-03-24T06:26:13.827Z,974.06
2023-03-24T06:27:13.778Z,974.06
2023-03-24T06:28:13.777Z,974.05
2023-03-24T06:29:13.767Z,974.03
2023-03-24T06:30:13.761Z,974.04
2023-03-24T06:31:13.785Z,974.04
2023-03-24T06:32:13.771Z,974.08
2023-03-24T06:33:13.847Z,974.09
2023-03-24T06:34:13.763Z,974.11
2023-03-24T06:35:13.716Z,974.14
2023-03-24T06:36:13.820Z,974.18
2023-03-24T06:37:13.698Z,974.18
2023-03-24T06:38:13.701Z,974.17
2023-03-24T06:39:13.663Z,974.17
2023-03-24T06:40:13.659Z,974.18
2023-03-24T06:41:13.633Z,974.17
2023-03-24T06:42:13.633Z,974.16
2023-03-24T06:43:13.652Z,974.15
2023-03-24T06:44:13.624Z,974.16
2023-03-24T06:45:13.600Z,974.16
2023-03-24T06:46:13.638Z,974.13
2023-03-24T06:47:13.599Z,974.13
2023-03-24T06:48:13.633Z,974.10
2023-03-24T06:49:13.605Z,974.09
2023-03-24T06:50:13.571Z,974.08
2023-03-24T06:51:13.549Z,974.09
2023-03-24T06:52:13.566Z,974.08
2023-03-24T06:53:13.520Z,974.13
2023-03-24T06:54:13.513Z,974.10
2023-03-24T06:55:13.544Z,974.11
2023-03-24T06:56:13.509Z,974.12
2023-03-24T06:57:13.530Z,974.13
2023-03-24T06:58:13.483Z,974.12
2023-03-24T06:59:13.470Z,974.11
2023-03-24T07:00:13.488Z,974.12
2023-03-24T07:01:13.473Z,974.13
2023-03-24T07:02:13.441Z,974.12
2023-03-24T07:03:13.476Z,974.11
2023-03-24T07:04:13.450Z,974.10
2023-03-24T07:05:13.388Z,974.10
2023-03-24T07:06:13.444Z,974.11
2023-03-24T07:07:44.695Z,974.12
2023-03-24T07:09:13.369Z,974.14
2023-03-24T07:10:13.412Z,974.14
2023-03-24T07:11:13.390Z,974.12
2023-03-24T07:12:14.669Z,974.12
2023-03-24T07:13:13.325Z,974.09
2023-03-24T07:14:13.312Z,974.11
2023-03-24T07:15:13.292Z,974.09
2023-03-24T07:16:13.356Z,974.10
2023-03-24T07:17:13.315Z,974.13
2023-03-24T07:18:13.312Z,974.12
2023-03-24T07:19:13.246Z,974.15
2023-03-24T07:20:13.233Z,974.16
2023-03-24T07:21:13.264Z,974.16
2023-03-24T07:22:13.234Z,974.20
2023-03-24T07:23:13.211Z,974.24
2023-03-24T07:24:13.222Z,974.25
2023-03-24T07:25:13.236Z,974.27
2023-03-24T07:26:13.218Z,974.22
2023-03-24T07:27:13.189Z,974.24
2023-03-24T07:28:13.166Z,974.24
2023-03-24T07:29:13.171Z,974.24
2023-03-24T07:30:13.140Z,974.25
2023-03-24T07:31:13.212Z,974.25
2023-03-24T07:32:13.154Z,974.29
2023-03-24T07:33:13.108Z,974.27
2023-03-24T07:34:13.103Z,974.26
2023-03-24T07:35:13.093Z,974.28
2023-03-24T07:36:13.157Z,974.30
2023-03-24T07:37:13.076Z,974.31
2023-03-24T07:38:13.103Z,974.35
2023-03-24T07:39:13.055Z,974.36
2023-03-24T07:40:13.052Z,974.34
2023-03-24T07:41:13.028Z,974.33
2023-03-24T07:42:13.244Z,974.37
2023-03-24T07:43:13.018Z,974.31
2023-03-24T07:44:13.048Z,974.30
2023-03-24T07:45:13.006Z,974.32
2023-03-24T07:46:13.064Z,974.35
2023-03-24T07:47:12.975Z,974.33
2023-03-24T07:48:13.027Z,974.33
2023-03-24T07:49:19.411Z,974.34
2023-03-24T07:50:12.958Z,974.35
2023-03-24T07:51:13.123Z,974.35
2023-03-24T07:52:13.107Z,974.34
2023-03-24T07:53:12.915Z,974.33
2023-03-24T07:54:12.982Z,974.32
2023-03-24T07:55:12.907Z,974.32
2023-03-24T07:56:12.881Z,974.30
2023-03-24T07:57:12.926Z,974.31
2023-03-24T07:58:12.878Z,974.26
2023-03-24T07:59:12.886Z,974.35
2023-03-24T08:00:12.841Z,974.28
2023-03-24T08:01:12.840Z,974.30
2023-03-24T08:02:12.847Z,974.26
2023-03-24T08:03:12.959Z,974.26
2023-03-24T08:04:12.912Z,974.21
2023-03-24T08:05:12.970Z,974.20
2023-03-24T08:06:12.776Z,974.16
2023-03-24T08:07:12.773Z,974.19
2023-03-24T08:08:12.772Z,974.26
2023-03-24T08:09:12.835Z,974.26
2023-03-24T08:10:12.783Z,974.26
2023-03-24T08:11:12.731Z,974.24
2023-03-24T08:12:20.059Z,974.24
2023-03-24T08:13:12.710Z,974.27
2023-03-24T08:14:12.684Z,974.30
2023-03-24T08:15:12.716Z,974.29
2023-03-24T08:16:12.792Z,974.32
2023-03-24T08:17:12.680Z,974.27
2023-03-24T08:18:12.708Z,974.29
2023-03-24T08:19:12.646Z,974.31
2023-03-24T08:20:12.668Z,974.30
2023-03-24T08:21:12.640Z,974.32
2023-03-24T08:22:12.630Z,974.32
2023-03-24T08:23:12.611Z,974.33
2023-03-24T08:24:12.658Z,974.35
2023-03-24T08:25:12.610Z,974.33
2023-03-24T08:26:12.593Z,974.34
2023-03-24T08:27:12.569Z,974.34
2023-03-24T08:28:12.570Z,974.36
2023-03-24T08:29:12.542Z,974.37
2023-03-24T08:30:12.586Z,974.38
2023-03-24T08:31:12.617Z,974.39
2023-03-24T08:32:12.510Z,974.38
2023-03-24T08:33:12.731Z,974.38
2023-03-24T08:34:12.487Z,974.37
2023-03-24T08:35:12.504Z,974.41
2023-03-24T08:36:12.512Z,974.36
2023-03-24T08:37:12.491Z,974.39
2023-03-24T08:38:12.468Z,974.40
2023-03-24T08:39:12.449Z,974.47
2023-03-24T08:40:12.438Z,974.46
2023-03-24T08:41:12.609Z,974.39
2023-03-24T08:42:12.443Z,974.39
2023-03-24T08:43:12.427Z,974.35
2023-03-24T08:44:12.402Z,974.40
2023-03-24T08:45:12.384Z,974.40
2023-03-24T08:46:13.942Z,974.34
2023-03-24T08:47:12.373Z,974.28
2023-03-24T08:48:12.421Z,974.25
2023-03-24T08:49:12.336Z,974.28
2023-03-24T08:50:12.348Z,974.22
2023-03-24T08:51:12.325Z,974.32
2023-03-24T08:52:12.356Z,974.30
2023-03-24T08:53:12.304Z,974.25
2023-03-24T08:54:12.295Z,974.29
2023-03-24T08:55:12.283Z,974.26
2023-03-24T08:56:12.284Z,974.25
2023-03-24T08:57:12.272Z,974.35
2023-03-24T08:58:12.286Z,974.24
2023-03-24T08:59:12.223Z,974.28
2023-03-24T09:00:12.230Z,974.27
2023-03-24T09:01:12.234Z,974.27
2023-03-24T09:02:12.205Z,974.28
2023-03-24T09:03:12.214Z,974.36
2023-03-24T09:04:12.228Z,974.36
2023-03-24T09:05:12.174Z,974.36
2023-03-24T09:06:12.279Z,974.35
2023-03-24T09:07:12.192Z,974.24
2023-03-24T09:08:12.160Z,974.15
2023-03-24T09:09:12.141Z,974.13
2023-03-24T09:10:12.162Z,974.16
2023-03-24T09:11:12.246Z,974.15
2023-03-24T09:12:12.116Z,974.21
2023-03-24T09:13:12.088Z,974.25
2023-03-24T09:14:12.097Z,974.31
2023-03-24T09:15:13.323Z,974.34
2023-03-24T09:16:12.114Z,974.36
2023-03-24T09:17:12.045Z,974.36
2023-03-24T09:18:12.044Z,974.36
2023-03-24T09:19:12.046Z,974.40
2023-03-24T09:20:12.022Z,974.37
2023-03-24T09:21:12.045Z,974.33
2023-03-24T09:22:12.030Z,974.28
2023-03-24T09:23:12.007Z,974.38
2023-03-24T09:24:12.002Z,974.31
2023-03-24T09:25:11.992Z,974.31
2023-03-24T09:26:12.009Z,974.34
2023-03-24T09:27:11.981Z,974.37
2023-03-24T09:28:11.929Z,974.38
2023-03-24T09:29:11.947Z,974.44
2023-03-24T09:30:11.951Z,974.45
2023-03-24T09:31:11.947Z,974.39
2023-03-24T09:32:11.936Z,974.35
2023-03-24T09:33:11.893Z,974.34
2023-03-24T09:34:11.912Z,974.37
2023-03-24T09:35:11.848Z,974.32
2023-03-24T09:36:12.005Z,974.29
2023-03-24T09:37:11.832Z,974.24
2023-03-24T09:38:11.847Z,974.20
2023-03-24T09:39:11.817Z,974.14
2023-03-24T09:40:11.826Z,974.12
2023-03-24T09:41:11.800Z,974.09
2023-03-24T09:42:11.785Z,974.14
2023-03-24T09:43:11.787Z,974.06
2023-03-24T09:44:11.864Z,974.13
2023-03-24T09:45:11.794Z,974.10
2023-03-24T09:46:11.799Z,974.12
2023-03-24T09:47:11.751Z,974.15
2023-03-24T09:48:11.783Z,974.20
2023-03-24T09:49:11.819Z,974.21
2023-03-24T09:50:11.750Z,974.13
2023-03-24T09:51:11.699Z,974.16
2023-03-24T09:52:11.712Z,974.10
2023-03-24T09:53:11.661Z,974.07
2023-03-24T09:54:11.679Z,974.12
2023-03-24T09:55:11.651Z,974.04
2023-03-24T09:56:11.676Z,974.08
2023-03-24T09:57:11.662Z,974.10
2023-03-24T09:58:11.625Z,974.12
2023-03-24T09:59:11.629Z,974.21
2023-03-24T10:00:11.631Z,974.23
2023-03-24T10:01:11.663Z,974.22
2023-03-24T10:02:11.629Z,974.23
2023-03-24T10:03:11.694Z,974.27
2023-03-24T10:04:11.716Z,974.24
2023-03-24T10:05:11.570Z,974.30
2023-03-24T10:06:11.544Z,974.26
2023-03-24T10:07:11.545Z,974.34
2023-03-24T10:08:11.568Z,974.25
2023-03-24T10:09:11.525Z,974.29
2023-03-24T10:10:11.580Z,974.34
2023-03-24T10:11:11.522Z,974.42
2023-03-24T10:12:11.492Z,974.27
2023-03-24T10:13:11.478Z,974.30
2023-03-24T10:14:11.504Z,974.24
2023-03-24T10:15:11.452Z,974.10
2023-03-24T10:16:11.466Z,974.13
2023-03-24T10:17:11.439Z,974.09
2023-03-24T10:18:11.463Z,974.01
2023-03-24T10:19:11.816Z,974.04
2023-03-24T10:20:11.413Z,974.02
2023-03-24T10:21:11.400Z,974.04
2023-03-24T10:22:11.385Z,974.04
2023-03-24T10:23:11.387Z,973.95
2023-03-24T10:24:11.438Z,973.89
2023-03-24T10:25:11.379Z,973.84
2023-03-24T10:26:11.362Z,973.84
2023-03-24T10:27:11.349Z,973.79
2023-03-24T10:28:11.364Z,973.80
2023-03-24T10:29:11.336Z,973.82
2023-03-24T10:30:11.324Z,973.87
2023-03-24T10:31:11.312Z,973.91
2023-03-24T10:32:11.277Z,973.93
2023-03-24T10:33:11.315Z,974.01
2023-03-24T10:34:11.299Z,973.95
2023-03-24T10:35:11.254Z,974.02
2023-03-24T10:36:11.258Z,974.08
2023-03-24T10:37:11.236Z,974.05
2023-03-24T10:38:11.215Z,974.08
2023-03-24T10:39:19.601Z,974.10
2023-03-24T10:40:11.208Z,974.07
2023-03-24T10:41:11.198Z,974.10
2023-03-24T10:42:11.206Z,974.01
2023-03-24T10:43:11.181Z,974.02
2023-03-24T10:44:11.159Z,974.05
2023-03-24T10:45:11.198Z,974.00
2023-03-24T10:46:11.171Z,974.01
2023-03-24T10:47:11.124Z,974.01
2023-03-24T10:48:11.150Z,973.98
2023-03-24T10:49:11.118Z,974.01
2023-03-24T10:50:12.802Z,973.95
2023-03-24T10:51:11.104Z,973.98
2023-03-24T10:52:11.088Z,973.91
2023-03-24T10:53:11.071Z,973.93
2023-03-24T10:54:11.062Z,973.96
2023-03-24T10:55:11.107Z,974.00
2023-03-24T10:56:11.058Z,974.25
2023-03-24T10:57:11.075Z,974.59
2023-03-24T10:58:11.092Z,974.78
2023-03-24T10:59:11.018Z,974.66
2023-03-24T11:00:11.040Z,974.72
2023-03-24T11:01:11.031Z,974.61
2023-03-24T11:02:11.039Z,974.59
2023-03-24T11:03:11.043Z,974.58
2023-03-24T11:04:10.961Z,974.63
2023-03-24T11:05:11.136Z,974.92
2023-03-24T11:06:10.952Z,974.78
2023-03-24T11:07:10.952Z,974.81
2023-03-24T11:08:10.929Z,974.82
2023-03-24T11:09:10.926Z,974.80
2023-03-24T11:10:10.926Z,974.81
2023-03-24T11:11:10.922Z,974.73
2023-03-24T11:12:10.872Z,974.79
2023-03-24T11:13:10.864Z,974.85
2023-03-24T11:14:10.865Z,974.96
2023-03-24T11:15:20.288Z,974.92
2023-03-24T11:16:10.861Z,974.94
2023-03-24T11:17:10.932Z,974.88
2023-03-24T11:18:10.827Z,974.91
2023-03-24T11:19:10.811Z,974.91
2023-03-24T11:20:10.807Z,974.86
2023-03-24T11:21:10.785Z,974.92
2023-03-24T11:22:10.793Z,975.12
2023-03-24T11:23:10.848Z,975.11
2023-03-24T11:24:10.757Z,975.07
2023-03-24T11:25:10.785Z,975.14
2023-03-24T11:26:10.760Z,975.12
2023-03-24T11:27:10.728Z,975.12
2023-03-24T11:28:10.705Z,975.28
2023-03-24T11:29:10.737Z,975.18
2023-03-24T11:30:10.688Z,975.27
2023-03-24T11:31:10.790Z,975.29
2023-03-24T11:32:10.670Z,975.33
2023-03-24T11:33:10.663Z,975.34
2023-03-24T11:34:10.665Z,975.29
2023-03-24T11:35:10.705Z,975.33
2023-03-24T11:36:10.928Z,975.35
2023-03-24T11:37:10.640Z,975.37
2023-03-24T11:38:10.618Z,975.39
2023-03-24T11:39:10.631Z,975.48
2023-03-24T11:40:10.601Z,975.60
2023-03-24T11:41:10.622Z,975.65
2023-03-24T11:42:10.590Z,975.59
2023-03-24T11:43:10.605Z,975.62
2023-03-24T11:44:10.561Z,975.60
2023-03-24T11:45:10.650Z,975.66
2023-03-24T11:46:10.635Z,975.61
2023-03-24T11:47:10.585Z,975.64
2023-03-24T11:48:10.581Z,975.63
2023-03-24T11:49:10.609Z,975.64
2023-03-24T11:50:10.563Z,975.65
2023-03-24T11:51:10.488Z,975.63
2023-03-24T11:52:10.474Z,975.62
2023-03-24T11:53:10.525Z,975.65
2023-03-24T11:54:10.441Z,975.57
2023-03-24T11:55:10.464Z,975.61
2023-03-24T11:56:10.436Z,975.64
2023-03-24T11:57:10.462Z,975.60
2023-03-24T11:58:10.420Z,975.59
2023-03-24T11:59:10.447Z,975.59
2023-03-24T12:00:10.400Z,975.54
2023-03-24T12:01:10.397Z,975.56
2023-03-24T12:02:10.389Z,975.45
2023-03-24T12:03:10.480Z,975.47
2023-03-24T12:04:10.388Z,975.56
2023-03-24T12:05:10.430Z,975.50
2023-03-24T12:06:10.434Z,975.46
2023-03-24T12:07:10.313Z,975.44
2023-03-24T12:08:10.311Z,975.50
2023-03-24T12:09:10.648Z,975.60
2023-03-24T12:10:10.304Z,975.61
2023-03-24T12:11:10.351Z,975.71
2023-03-24T12:12:10.346Z,975.63
2023-03-24T12:13:16.090Z,975.69
2023-03-24T12:14:10.326Z,975.76
2023-03-24T12:15:20.668Z,975.82
2023-03-24T12:16:10.361Z,975.87
2023-03-24T12:17:10.285Z,975.85
2023-03-24T12:18:10.287Z,975.87
2023-03-24T12:19:10.275Z,975.90
2023-03-24T12:20:10.265Z,975.86
2023-03-24T12:21:10.309Z,975.78
2023-03-24T12:22:10.166Z,975.81
2023-03-24T12:23:10.171Z,975.80
2023-03-24T12:24:10.190Z,975.83
2023-03-24T12:25:10.160Z,975.75
2023-03-24T12:26:10.152Z,975.77
2023-03-24T12:27:10.226Z,975.72
2023-03-24T12:28:10.158Z,975.62
2023-03-24T12:29:10.110Z,975.71